CheckWX is a tool to help pilots better visualize weather data.  It is not intended as a substitute for an official pre-flight weather briefing.

02:02:03 UTC

FBSK TAF
Sir Seretse Khama International Airport
Gaborone, Botswana
TAF FBSK 182100Z 1900/2006 17005KT CAVOK

Mar-19@
00:00 UTC

Mar-19 @ 00:00 UTC

Mar-20@
06:00 UTC

Mar-20 @ 06:00 UTC

TAF FBSK 182100Z 1900/2006 17005KT CAVOK
Wind
  • 170° at 5 KTS
Conditions
No significant weather
Cloud Levels
  • No significant clouds